Time;durP1;ratioP1;P1;durP2;ratioP2;P2;SDS_P1;SDS_P2;PMS_P1;PMS_P2;Temp;Humidity;BMP_temperature;BMP_pressure;BME280_temperature;BME280_humidity;BME280_pressure;Samples;Min_cycle;Max_cycle;Signal;HPM_P1;HPM_P2
2022/06/03 00:01:48;;;;;;;;;4.00;4.00;;;;;19.97;38.56;100958.00;5069903;27;45622;-79
2022/06/03 00:04:48;;;;;;;;;4.75;4.25;;;;;20.03;38.23;100958.88;5068288;28;45518;-79
2022/06/03 00:07:51;;;;;;;;;5.50;5.50;;;;;20.14;38.16;100973.97;5070039;27;46692;-79
2022/06/03 00:10:35;;;;;;;;;5.00;5.00;;;;;20.07;38.59;100962.44;5080008;27;45941;-80
2022/06/03 00:13:19;;;;;;;;;4.00;4.00;;;;;19.99;39.22;100954.41;5090380;27;45476;-79
2022/06/03 00:16:05;;;;;;;;;4.00;4.00;;;;;19.94;39.07;100961.53;5089966;27;45446;-80
2022/06/03 00:18:49;;;;;;;;;4.50;4.50;;;;;19.65;39.66;100915.31;5089721;27;45675;-80
2022/06/03 00:21:27;;;;;;;;;4.00;4.00;;;;;19.75;39.64;100943.75;5088633;27;46011;-79
2022/06/03 00:24:21;;;;;;;;;5.50;5.50;;;;;19.66;39.88;100933.09;5095201;27;45491;-79
2022/06/03 00:26:59;;;;;;;;;4.75;4.75;;;;;19.74;39.85;100960.66;5110520;27;45454;-79
2022/06/03 00:29:30;;;;;;;;;4.25;4.25;;;;;19.67;39.93;100962.44;5110336;27;46849;-79
2022/06/03 00:32:04;;;;;;;;;5.00;4.00;;;;;19.54;40.69;100953.47;5110351;27;45378;-79
2022/06/03 00:34:51;;;;;;;;;4.00;4.00;;;;;19.56;40.37;100956.19;5110313;27;45650;-79
2022/06/03 00:37:22;;;;;;;;;4.75;4.75;;;;;19.52;40.12;100944.59;5110810;27;45432;-79
2022/06/03 00:40:13;;;;;;;;;4.25;4.25;;;;;19.21;40.07;100901.03;5110534;27;45354;-79
2022/06/03 00:43:06;;;;;;;;;4.00;4.00;;;;;19.47;40.95;100957.03;5109867;27;45760;-79
2022/06/03 00:45:53;;;;;;;;;5.00;5.00;;;;;19.43;40.71;100955.25;5110664;27;45741;-79
2022/06/03 00:48:24;;;;;;;;;4.00;4.00;;;;;19.41;41.27;100961.44;5110401;27;45710;-80
2022/06/03 00:51:29;;;;;;;;;5.50;5.00;;;;;19.14;41.48;100928.53;5091934;27;47656;-79
2022/06/03 00:54:26;;;;;;;;;6.75;5.50;;;;;19.11;41.46;100924.97;5046388;27;45795;-79
2022/06/03 00:57:20;;;;;;;;;4.00;4.00;;;;;19.24;41.19;100958.75;5095284;27;45456;-80
2022/06/03 01:00:07;;;;;;;;;4.00;4.00;;;;;19.20;41.11;100954.31;5109919;27;45655;-81
2022/06/03 01:02:57;;;;;;;;;4.00;4.00;;;;;19.14;41.71;100959.63;5090198;27;46981;-79
2022/06/03 01:05:26;;;;;;;;;4.50;4.50;;;;;19.11;42.07;100960.50;5091522;27;45296;-81
2022/06/03 01:08:00;;;;;;;;;4.00;3.25;;;;;19.11;42.07;100954.28;5092021;27;45636;-80
2022/06/03 01:10:53;;;;;;;;;5.00;5.00;;;;;19.07;42.02;100951.63;5100213;27;45531;-79
2022/06/03 01:13:50;;;;;;;;;4.50;4.50;;;;;18.94;42.29;100928.47;5092883;27;45568;-81
2022/06/03 01:16:31;;;;;;;;;5.75;4.00;;;;;18.89;42.57;100934.69;5074052;27;45951;-78
2022/06/03 01:19:20;;;;;;;;;5.00;4.50;;;;;18.98;42.17;100951.59;5093007;27;45463;-80
2022/06/03 01:22:19;;;;;;;;;4.00;3.00;;;;;18.97;42.74;100951.59;5093321;27;45514;-79
2022/06/03 01:25:01;;;;;;;;;4.75;4.75;;;;;18.89;42.46;100951.53;5092183;27;45550;-80
2022/06/03 01:27:47;;;;;;;;;5.25;5.00;;;;;18.66;42.61;100916.78;5093094;27;45682;-79
2022/06/03 01:30:38;;;;;;;;;5.00;5.00;;;;;18.80;43.02;100960.38;5093041;27;45411;-79
2022/06/03 01:33:33;;;;;;;;;4.75;4.75;;;;;18.75;42.92;100943.50;5074069;27;45604;-78
2022/06/03 01:36:14;;;;;;;;;3.00;3.00;;;;;18.71;43.10;100944.34;5074447;27;48350;-79
2022/06/03 01:38:52;;;;;;;;;3.50;3.50;;;;;18.68;43.08;100941.72;5073781;27;45704;-79
2022/06/03 01:41:32;;;;;;;;;5.00;4.50;;;;;18.67;43.26;100944.31;5073749;27;45497;-79
2022/06/03 01:43:58;;;;;;;;;3.50;3.50;;;;;18.65;43.71;100943.41;5074639;27;45524;-78
2022/06/03 01:46:28;;;;;;;;;3.67;3.67;;;;;18.64;43.61;100938.97;5091579;27;46211;-78
2022/06/03 01:48:57;;;;;;;;;5.25;5.25;;;;;18.59;43.16;100930.97;5080652;27;46417;-79
2022/06/03 01:51:37;;;;;;;;;4.25;4.25;;;;;18.46;44.09;100914.03;5095306;27;45563;-81
2022/06/03 01:54:40;;;;;;;;;5.00;4.00;;;;;18.56;43.62;100923.84;5077507;27;45591;-80
2022/06/03 01:57:18;;;;;;;;;5.00;4.75;;;;;18.45;43.78;100916.69;5084609;27;48053;-79
2022/06/03 01:59:52;;;;;;;;;5.00;5.00;;;;;18.48;44.57;100920.28;5119961;27;45832;-80
2022/06/03 02:02:42;;;;;;;;;6.00;5.00;;;;;18.45;44.22;100912.28;5097167;27;45980;-78
2022/06/03 02:05:13;;;;;;;;;3.00;3.00;;;;;18.43;44.10;100919.38;5099585;27;45499;-81
2022/06/03 02:07:50;;;;;;;;;5.00;4.50;;;;;18.42;43.95;100909.59;5100584;27;46383;-80
2022/06/03 02:10:43;;;;;;;;;5.25;5.25;;;;;18.22;43.98;100868.66;5107054;27;46121;-79
2022/06/03 02:13:56;;;;;;;;;4.75;4.75;;;;;18.43;44.50;100902.50;5076074;27;45458;-78
2022/06/03 02:16:43;;;;;;;;;5.00;5.00;;;;;18.43;44.03;100898.06;5007983;28;45567;-79
2022/06/03 02:19:11;;;;;;;;;4.25;4.25;;;;;18.45;44.87;100895.41;5023330;28;46004;-81
2022/06/03 02:21:51;;;;;;;;;5.00;4.25;;;;;18.45;44.41;100890.09;5084499;27;45757;-78
2022/06/03 02:24:47;;;;;;;;;5.75;5.00;;;;;18.40;44.66;100878.53;5112410;27;45874;-80
2022/06/03 02:27:46;;;;;;;;;5.00;4.50;;;;;18.38;44.27;100882.97;5112804;27;45624;-79
2022/06/03 02:30:36;;;;;;;;;4.75;4.75;;;;;18.34;44.77;100876.72;5112769;27;46534;-79
2022/06/03 02:33:56;;;;;;;;;4.75;4.00;;;;;18.30;44.47;100874.94;5094112;27;45632;-79
2022/06/03 02:36:44;;;;;;;;;5.00;5.00;;;;;18.22;44.77;100863.34;5008062;28;45643;-79
2022/06/03 02:39:35;;;;;;;;;4.75;4.75;;;;;18.08;45.10;100841.09;5097984;27;45554;-80
2022/06/03 02:42:06;;;;;;;;;4.75;4.75;;;;;18.22;44.76;100866.91;5112766;27;45504;-79
2022/06/03 02:45:09;;;;;;;;;5.25;5.25;;;;;18.21;45.20;100857.16;5112301;27;45578;-81
2022/06/03 02:47:50;;;;;;;;;4.50;4.25;;;;;18.19;45.40;100856.25;5111648;27;45495;-80
2022/06/03 02:50:48;;;;;;;;;5.00;4.25;;;;;18.18;45.74;100865.13;5112326;27;45648;-80
2022/06/03 02:53:34;;;;;;;;;5.50;5.50;;;;;18.14;45.35;100868.66;5093553;27;48160;-82
2022/06/03 02:56:33;;;;;;;;;5.25;5.25;;;;;18.15;45.32;100858.91;5112677;27;45793;-80
2022/06/03 02:59:17;;;;;;;;;6.00;5.75;;;;;18.00;45.58;100835.75;5112749;27;45540;-78
2022/06/03 03:01:52;;;;;;;;;4.75;4.25;;;;;18.15;46.06;100866.88;5105193;27;45698;-79
2022/06/03 03:04:30;;;;;;;;;4.50;4.25;;;;;18.09;45.54;100857.09;5099154;27;45738;-81
2022/06/03 03:07:01;;;;;;;;;5.25;5.25;;;;;18.11;45.91;100857.09;5106837;27;45545;-80
2022/06/03 03:09:44;;;;;;;;;4.75;4.75;;;;;18.07;45.86;100852.63;5108409;27;45758;-80
2022/06/03 03:12:42;;;;;;;;;5.50;5.00;;;;;17.75;45.61;100811.69;5099221;27;45446;-80
2022/06/03 03:15:37;;;;;;;;;5.75;5.75;;;;;18.07;46.01;100866.81;5119233;27;46227;-81
2022/06/03 03:18:09;;;;;;;;;5.00;5.00;;;;;18.06;45.94;100873.03;5098656;27;46139;-80
2022/06/03 03:21:00;;;;;;;;;6.00;6.00;;;;;18.04;46.35;100867.72;5107942;27;45350;-80
2022/06/03 03:23:34;;;;;;;;;8.00;6.50;;;;;18.00;46.06;100863.25;5128631;27;45057;-81
2022/06/03 03:26:28;;;;;;;;;6.00;6.00;;;;;17.98;47.03;100864.09;5111687;27;46577;-80
2022/06/03 03:29:14;;;;;;;;;5.75;5.75;;;;;17.62;47.02;100812.44;5121723;27;45416;-80
2022/06/03 03:31:40;;;;;;;;;7.50;6.75;;;;;17.90;46.83;100864.06;5118929;27;45201;-79
2022/06/03 03:34:23;;;;;;;;;5.75;5.75;;;;;17.89;46.50;100870.28;5122477;27;47233;-79
2022/06/03 03:37:11;;;;;;;;;7.00;6.00;;;;;17.87;46.82;100858.72;5123698;27;45673;-79
2022/06/03 03:39:58;;;;;;;;;6.25;6.25;;;;;17.85;46.75;100852.50;5093485;27;45557;-79
2022/06/03 03:43:07;;;;;;;;;7.00;6.00;;;;;17.51;46.91;100801.72;5116485;27;45146;-78
2022/06/03 03:46:10;;;;;;;;;5.75;5.75;;;;;17.76;47.46;100855.09;5109525;27;45179;-78
2022/06/03 03:48:53;;;;;;;;;5.75;5.75;;;;;17.76;47.19;100845.34;5089563;27;47087;-78
2022/06/03 03:51:33;;;;;;;;;6.75;6.75;;;;;17.76;47.44;100845.34;5108359;27;45167;-79
2022/06/03 03:54:13;;;;;;;;;5.25;5.25;;;;;17.70;47.32;100839.09;5107685;27;45413;-79
2022/06/03 03:57:06;;;;;;;;;6.75;6.00;;;;;17.54;47.61;100822.16;5109489;27;45303;-78
2022/06/03 03:59:50;;;;;;;;;7.25;6.00;;;;;17.68;47.91;100846.13;5121763;27;46244;-79
2022/06/03 04:02:37;;;;;;;;;6.50;6.25;;;;;17.66;47.90;100847.91;5130107;27;45645;-79
2022/06/03 04:05:14;;;;;;;;;7.25;7.00;;;;;17.66;47.68;100854.13;5111258;27;45243;-79
2022/06/03 04:07:42;;;;;;;;;6.75;6.75;;;;;17.70;47.65;100849.72;5130157;27;45193;-79
2022/06/03 04:10:26;;;;;;;;;7.50;6.50;;;;;17.69;48.22;100847.94;5120583;27;45369;-80
2022/06/03 04:13:14;;;;;;;;;6.00;6.00;;;;;17.70;48.33;100853.25;5101306;27;45588;-79
2022/06/03 04:16:01;;;;;;;;;8.25;8.00;;;;;17.70;48.36;100847.94;5126574;27;45221;-78
2022/06/03 04:18:39;;;;;;;;;8.00;8.00;;;;;17.71;48.32;100847.06;5110731;27;45146;-79
2022/06/03 04:21:41;;;;;;;;;5.50;5.50;;;;;17.73;48.89;100844.44;5130093;27;46022;-79
2022/06/03 04:24:47;;;;;;;;;5.50;5.50;;;;;17.57;48.26;100813.28;5096178;27;45659;-79
2022/06/03 04:27:40;;;;;;;;;7.00;7.00;;;;;17.81;48.39;100844.50;5071860;27;45442;-78
2022/06/03 04:30:24;;;;;;;;;7.00;7.00;;;;;17.84;49.17;100848.09;5089934;27;45658;-79
2022/06/03 04:33:25;;;;;;;;;6.25;5.50;;;;;17.88;48.75;100839.25;5089731;27;46373;-78
2022/06/03 04:36:09;;;;;;;;;6.75;6.75;;;;;17.93;48.51;100847.22;5071696;27;45795;-79
2022/06/03 04:38:44;;;;;;;;;6.00;6.00;;;;;18.01;48.69;100862.34;5089733;27;45582;-81
2022/06/03 04:41:50;;;;;;;;;7.50;7.00;;;;;17.91;48.63;100833.94;5071767;27;45562;-78
2022/06/03 04:44:36;;;;;;;;;5.50;5.50;;;;;18.16;48.80;100863.31;5091235;27;45529;-78
2022/06/03 04:47:45;;;;;;;;;6.25;5.75;;;;;18.22;49.29;100860.69;5096603;27;45511;-78
2022/06/03 04:50:48;;;;;;;;;8.00;7.50;;;;;18.25;49.00;100855.41;5097070;27;45499;-78
2022/06/03 04:53:54;;;;;;;;;6.50;6.50;;;;;18.27;48.65;100865.19;5077697;27;45454;-79
2022/06/03 04:56:56;;;;;;;;;6.00;6.00;;;;;18.33;48.50;100866.97;5096417;27;45841;-78
2022/06/03 04:59:52;;;;;;;;;6.50;6.25;;;;;18.41;48.40;100872.31;5077535;27;46228;-79
2022/06/03 05:02:45;;;;;;;;;5.00;5.00;;;;;18.48;49.31;100874.16;5077723;27;45391;-78
2022/06/03 05:05:16;;;;;;;;;7.75;7.75;;;;;18.50;49.12;100873.25;5096895;27;45374;-78
2022/06/03 05:07:54;;;;;;;;;6.50;6.50;;;;;18.49;49.35;100863.50;5077648;27;47563;-78
2022/06/03 05:10:38;;;;;;;;;5.75;5.75;;;;;18.51;49.40;100859.06;5088165;27;45976;-79
2022/06/03 05:13:42;;;;;;;;;5.50;5.50;;;;;18.53;49.32;100848.44;5117987;27;45599;-79
2022/06/03 05:16:28;;;;;;;;;6.50;6.50;;;;;18.60;48.65;100857.31;5097910;27;45749;-79
2022/06/03 05:18:55;;;;;;;;;6.00;5.00;;;;;18.65;49.85;100859.13;5117116;27;46228;-80
2022/06/03 05:21:36;;;;;;;;;7.00;6.25;;;;;18.70;49.55;100856.50;5116691;27;45430;-78
2022/06/03 05:24:21;;;;;;;;;6.25;6.25;;;;;18.72;49.80;100860.97;5117018;27;45545;-79
2022/06/03 05:27:04;;;;;;;;;7.50;6.75;;;;;18.78;50.23;100862.75;5117124;27;45508;-79
2022/06/03 05:30:08;;;;;;;;;6.00;6.00;;;;;18.84;50.30;100862.75;5116302;27;46254;-80
2022/06/03 05:32:52;;;;;;;;;6.00;6.00;;;;;18.89;48.35;100854.78;5097236;27;45994;-79
2022/06/03 05:35:50;;;;;;;;;6.00;6.00;;;;;18.91;48.78;100837.00;5116615;27;45558;-80
2022/06/03 05:38:16;;;;;;;;;9.00;7.00;;;;;19.01;48.22;100839.72;5080655;27;45831;-78
2022/06/03 05:40:57;;;;;;;;;7.75;7.25;;;;;19.08;47.34;100846.81;5116233;27;46237;-79
2022/06/03 05:43:48;;;;;;;;;6.25;6.00;;;;;19.17;46.59;100835.28;5116437;27;45947;-80
2022/06/03 05:46:32;;;;;;;;;5.75;5.75;;;;;19.27;46.41;100831.75;5116287;27;45489;-79
2022/06/03 05:49:07;;;;;;;;;6.75;6.75;;;;;19.36;46.39;100832.63;5098275;27;45559;-78
2022/06/03 05:51:35;;;;;;;;;6.25;6.00;;;;;19.44;45.81;100831.75;5115985;27;45484;-79
2022/06/03 05:54:14;;;;;;;;;4.75;4.50;;;;;19.49;45.30;100816.63;5116844;27;45495;-80
2022/06/03 05:57:14;;;;;;;;;5.25;5.25;;;;;19.61;46.10;100828.22;5112944;27;45543;-78
2022/06/03 06:00:04;;;;;;;;;7.25;7.00;;;;;19.71;45.72;100827.31;5111975;27;45472;-80
2022/06/03 06:03:29;;;;;;;;;6.00;6.00;;;;;19.59;45.38;100794.44;5112053;27;46407;-79
2022/06/03 06:06:19;;;;;;;;;5.00;5.00;;;;;19.59;44.96;100797.09;5008837;28;45586;-79
2022/06/03 06:09:12;;;;;;;;;7.00;6.50;;;;;19.87;45.09;100836.19;5113152;27;45607;-79
2022/06/03 06:11:40;;;;;;;;;8.00;7.50;;;;;19.92;45.09;100837.06;5092231;27;45831;-78
2022/06/03 06:14:29;;;;;;;;;7.00;7.00;;;;;19.99;44.60;100834.34;5091992;27;45660;-80
2022/06/03 06:16:59;;;;;;;;;7.50;7.50;;;;;19.92;45.21;100821.06;5080504;27;45902;-78
2022/06/03 06:19:35;;;;;;;;;9.50;7.00;;;;;20.09;44.89;100838.78;5092210;27;45521;-78
2022/06/03 06:22:19;;;;;;;;;5.75;5.75;;;;;20.17;45.59;100840.53;5092290;27;45394;-78
2022/06/03 06:25:31;;;;;;;;;7.50;6.75;;;;;20.25;45.17;100842.31;5091937;27;46196;-79
2022/06/03 06:28:02;;;;;;;;;6.50;6.50;;;;;20.15;44.60;100815.63;5054813;27;45386;-81
2022/06/03 06:30:49;;;;;;;;;7.00;7.00;;;;;20.36;44.92;100834.25;5091198;27;45428;-80
2022/06/03 06:33:27;;;;;;;;;7.50;7.50;;;;;20.40;44.71;100833.34;5073338;27;45818;-81
2022/06/03 06:35:58;;;;;;;;;7.25;7.00;;;;;20.44;44.71;100823.53;5073092;27;47182;-80
2022/06/03 06:38:42;;;;;;;;;8.00;8.00;;;;;20.47;44.74;100835.13;5091992;27;45870;-78
2022/06/03 06:41:23;;;;;;;;;6.50;6.50;;;;;20.29;45.07;100803.13;5091836;27;45494;-79
2022/06/03 06:44:06;;;;;;;;;6.25;6.00;;;;;20.30;44.54;100794.25;5091649;27;45374;-79
2022/06/03 06:46:55;;;;;;;;;7.75;7.75;;;;;20.61;44.24;100840.41;5090443;27;46284;-80
2022/06/03 06:49:35;;;;;;;;;7.75;7.00;;;;;20.62;44.41;100828.81;5090722;27;45483;-79
2022/06/03 06:52:33;;;;;;;;;8.00;7.00;;;;;20.71;44.35;100827.88;5091300;27;45481;-78
2022/06/03 06:55:13;;;;;;;;;8.00;7.00;;;;;20.74;44.27;100825.19;5091975;27;45553;-78
2022/06/03 06:57:47;;;;;;;;;9.00;7.50;;;;;20.79;44.58;100829.63;5091574;27;45820;-78
2022/06/03 07:00:27;;;;;;;;;5.50;5.50;;;;;20.68;44.07;100807.41;5091232;27;45381;-80
2022/06/03 07:03:21;;;;;;;;;7.00;6.50;;;;;20.78;44.20;100816.25;5091511;27;45363;-78
2022/06/03 07:06:06;;;;;;;;;8.25;7.75;;;;;20.62;44.33;100764.72;5091428;27;45527;-78
2022/06/03 07:08:41;;;;;;;;;7.25;7.25;;;;;20.92;43.95;100809.03;5090687;27;46827;-79
2022/06/03 07:11:14;;;;;;;;;10.00;8.00;;;;;20.98;44.28;100813.44;5108919;27;45465;-78
2022/06/03 07:13:42;;;;;;;;;6.00;6.00;;;;;21.07;44.56;100819.63;5111457;27;45613;-79
2022/06/03 07:16:07;;;;;;;;;6.00;6.00;;;;;21.16;44.45;100817.78;5111681;27;46054;-79
2022/06/03 07:22:19;;;;;;;;;7.25;7.25;;;;;21.29;43.78;100816.78;5111087;27;45798;-78
2022/06/03 07:25:06;;;;;;;;;8.50;8.25;;;;;21.34;44.02;100828.38;5111479;27;45301;-78
2022/06/03 07:28:03;;;;;;;;;7.75;7.00;;;;;21.26;44.36;100804.31;5092399;27;45474;-78
2022/06/03 07:30:41;;;;;;;;;10.25;8.75;;;;;21.52;44.17;100824.63;5110982;27;45570;-79
2022/06/03 07:33:35;;;;;;;;;8.25;7.75;;;;;21.52;43.82;100811.25;5111557;27;45432;-79
2022/06/03 07:36:22;;;;;;;;;8.50;8.50;;;;;21.66;43.87;100836.09;5111503;27;45506;-79
2022/06/03 07:38:57;;;;;;;;;7.50;7.50;;;;;21.52;44.77;100798.78;5111635;27;45553;-80
2022/06/03 07:41:31;;;;;;;;;10.25;9.00;;;;;21.76;44.29;100832.44;5111197;27;45581;-79
2022/06/03 07:44:07;;;;;;;;;9.00;8.25;;;;;21.74;44.03;100822.66;5092862;27;45973;-79
2022/06/03 07:46:50;;;;;;;;;9.25;8.50;;;;;21.62;44.05;100800.50;5111130;27;45448;-79
2022/06/03 07:49:18;;;;;;;;;9.00;8.25;;;;;21.75;44.22;100832.44;5092522;27;45464;-78
2022/06/03 07:51:47;;;;;;;;;10.00;9.00;;;;;21.69;44.88;100819.16;5110824;27;46629;-78
2022/06/03 07:54:18;;;;;;;;;8.25;8.00;;;;;21.84;44.38;100838.59;5111420;27;45566;-78
2022/06/03 07:56:43;;;;;;;;;9.75;9.75;;;;;21.70;44.65;100804.84;5092588;27;45640;-80
2022/06/03 07:59:19;;;;;;;;;8.25;8.25;;;;;21.93;44.40;100839.41;5111080;27;45352;-78
2022/06/03 08:01:58;;;;;;;;;8.25;8.25;;;;;21.75;44.48;100805.69;5110498;27;46292;-79
2022/06/03 08:04:36;;;;;;;;;9.75;9.75;;;;;21.99;44.32;100839.34;5110512;27;45934;-78
2022/06/03 08:12:38;;;;;;;;;9.50;8.75;;;;;22.06;44.54;100814.28;5089527;27;46128;-79
2022/06/03 08:15:19;;;;;;;;;9.50;8.25;;;;;22.26;44.09;100832.81;5090209;27;45636;-80
2022/06/03 08:17:47;;;;;;;;;10.25;9.75;;;;;22.32;44.83;100824.72;5090077;27;45524;-78
2022/06/03 08:20:16;;;;;;;;;8.00;8.00;;;;;22.18;44.79;100789.19;5089045;27;45598;-79
2022/06/03 08:22:44;;;;;;;;;9.75;8.50;;;;;22.32;44.61;100789.91;5089948;27;46183;-78
2022/06/03 08:25:15;;;;;;;;;8.25;8.25;;;;;22.37;44.14;100782.72;5090166;27;45435;-78
2022/06/03 08:27:42;;;;;;;;;10.75;9.00;;;;;22.49;43.92;100790.56;5089884;27;45472;-79
2022/06/03 08:30:12;;;;;;;;;7.00;7.00;;;;;22.76;43.93;100821.44;5090258;27;45651;-79
2022/06/03 08:32:40;;;;;;;;;10.50;9.25;;;;;22.65;43.36;100777.81;5089659;27;46404;-81
2022/06/03 08:35:23;;;;;;;;;8.00;7.50;;;;;22.78;43.39;100790.16;5090008;27;45621;-79
2022/06/03 08:38:24;;;;;;;;;11.00;10.50;;;;;23.04;42.95;100813.00;5090407;27;45791;-80
2022/06/03 08:41:20;;;;;;;;;10.00;9.25;;;;;23.08;43.44;100810.25;5089963;27;45512;-79
2022/06/03 08:44:22;;;;;;;;;9.00;8.50;;;;;23.10;43.26;100802.19;5089694;27;46436;-79
2022/06/03 08:47:00;;;;;;;;;10.00;9.00;;;;;22.94;43.32;100766.69;5070953;27;46011;-80
2022/06/03 08:49:37;;;;;;;;;11.25;11.25;;;;;23.04;43.60;100780.84;5089358;27;45455;-78
2022/06/03 08:52:06;;;;;;;;;12.00;10.00;;;;;23.01;43.11;100775.56;5090376;27;45367;-79
2022/06/03 08:54:39;;;;;;;;;9.00;8.25;;;;;23.17;43.34;100791.34;5071055;27;48533;-79
2022/06/03 08:57:20;;;;;;;;;9.25;9.25;;;;;23.16;43.54;100781.53;5089809;27;45958;-80
2022/06/03 08:59:55;;;;;;;;;9.25;8.25;;;;;23.27;43.74;100781.34;5089736;27;45534;-80
2022/06/03 09:02:37;;;;;;;;;10.75;9.75;;;;;23.32;43.43;100778.59;5070697;27;45605;-79
2022/06/03 09:05:30;;;;;;;;;9.50;9.00;;;;;23.26;43.19;100757.25;5071062;27;46102;-80
2022/06/03 09:08:11;;;;;;;;;9.00;9.00;;;;;23.22;43.19;100744.81;5078710;27;45926;-81
2022/06/03 09:10:57;;;;;;;;;11.75;11.75;;;;;23.38;43.40;100774.00;5102943;27;45484;-78
2022/06/03 09:13:38;;;;;;;;;11.75;11.00;;;;;23.52;43.20;100789.84;5109961;27;45389;-78
2022/06/03 09:16:06;;;;;;;;;10.25;9.75;;;;;23.38;43.53;100765.97;5109950;27;46405;-78
2022/06/03 09:18:39;;;;;;;;;10.00;10.00;;;;;23.46;43.92;100784.63;5109362;27;45544;-78
2022/06/03 09:21:10;;;;;;;;;12.25;12.25;;;;;23.60;43.36;100828.19;5110671;27;45666;-78
2022/06/03 09:23:41;;;;;;;;;11.50;11.00;;;;;23.57;43.57;100854.19;5109506;27;45411;-79
2022/06/03 09:26:27;;;;;;;;;9.75;9.25;;;;;23.52;44.54;100869.47;5110153;27;46409;-78
2022/06/03 09:28:56;;;;;;;;;10.50;10.00;;;;;23.54;44.39;100857.78;5110189;27;45693;-78
2022/06/03 09:31:22;;;;;;;;;11.25;11.00;;;;;23.33;44.00;100789.28;5111457;27;45378;-78
2022/06/03 09:33:48;;;;;;;;;12.00;11.00;;;;;23.39;44.34;100799.03;5113128;27;45556;-79
2022/06/03 09:36:18;;;;;;;;;12.25;10.75;;;;;23.61;44.06;100851.41;5113503;27;45792;-80
2022/06/03 09:39:02;;;;;;;;;10.25;9.75;;;;;23.41;44.14;100799.91;5113383;27;45609;-80
2022/06/03 09:41:33;;;;;;;;;11.50;11.00;;;;;23.65;44.33;100833.50;5112864;27;45570;-78
2022/06/03 09:44:03;;;;;;;;;12.00;11.00;;;;;23.77;45.41;100845.81;5113643;27;45431;-78
2022/06/03 09:46:30;;;;;;;;;9.75;9.75;;;;;23.86;44.76;100849.22;5112482;27;45526;-78
2022/06/03 09:48:56;;;;;;;;;10.75;10.00;;;;;23.87;45.77;100848.28;5113071;27;45534;-78
2022/06/03 09:51:55;;;;;;;;;10.00;9.25;;;;;23.86;44.72;100824.16;5113152;27;45461;-79
2022/06/03 09:54:12;;;;;;;;;13.25;12.25;;;;;23.92;45.22;100826.72;5113255;27;45603;-78
2022/06/03 09:56:39;;;;;;;;;11.75;10.50;;;;;24.17;45.17;100854.00;5112472;27;46343;-78
2022/06/03 09:59:06;;;;;;;;;12.25;12.25;;;;;24.24;45.58;100844.03;5113445;27;45880;-78
2022/06/03 10:01:33;;;;;;;;;11.75;11.75;;;;;24.26;45.42;100835.00;5093771;27;45417;-78
2022/06/03 10:04:00;;;;;;;;;11.25;10.50;;;;;24.34;45.47;100837.56;5112851;27;45540;-79
2022/06/03 10:18:03;;;;;;;;;12.00;12.00;;;;;24.39;45.56;100793.59;5092063;27;45999;-78
2022/06/03 10:20:29;;;;;;;;;10.50;10.50;;;;;24.56;46.18;100803.06;5073193;27;46102;-78
2022/06/03 10:22:55;;;;;;;;;11.75;11.25;;;;;24.57;45.38;100791.38;5092629;27;45395;-79
2022/06/03 10:25:20;;;;;;;;;12.75;11.50;;;;;24.60;45.51;100775.22;5091390;27;45367;-78
2022/06/03 10:27:45;;;;;;;;;11.00;11.00;;;;;24.73;46.39;100781.16;5091839;27;45468;-78
2022/06/03 10:30:13;;;;;;;;;11.00;10.75;;;;;24.89;46.27;100806.81;5091518;27;45495;-78
2022/06/03 10:32:40;;;;;;;;;10.25;10.25;;;;;24.99;45.43;100808.34;5091458;27;45569;-77
2022/06/03 10:35:14;;;;;;;;;10.00;10.00;;;;;24.89;45.34;100769.16;5092187;27;45544;-78
2022/06/03 10:37:52;;;;;;;;;13.25;13.25;;;;;25.25;45.45;100809.56;5091742;27;45426;-79
2022/06/03 10:40:20;;;;;;;;;9.50;9.50;;;;;25.24;44.89;100799.72;5091011;27;45959;-79
2022/06/03 10:42:48;;;;;;;;;11.25;11.00;;;;;25.17;45.57;100772.06;5091061;27;45465;-79
2022/06/03 10:45:14;;;;;;;;;13.00;12.00;;;;;25.32;44.89;100797.69;5091456;27;45553;-79
2022/06/03 10:47:43;;;;;;;;;12.50;11.75;;;;;25.23;44.74;100789.88;5091197;27;45629;-79
2022/06/03 10:50:27;;;;;;;;;12.75;12.25;;;;;25.38;44.91;100828.03;5092133;27;45943;-78
2022/06/03 11:01:43;;;;;;;;;11.25;11.00;;;;;25.34;47.13;100855.94;5090200;27;46084;-78
2022/06/03 11:04:30;;;;;;;;;12.50;12.00;;;;;25.24;46.46;100853.53;5090679;27;45447;-78
2022/06/03 11:06:59;;;;;;;;;12.50;11.75;;;;;24.82;46.03;100811.41;5073269;27;45453;-79
2022/06/03 11:09:25;;;;;;;;;10.75;10.75;;;;;24.91;47.58;100861.41;5075061;27;47497;-78
2022/06/03 11:12:02;;;;;;;;;11.00;11.00;;;;;24.74;47.24;100866.28;5112493;27;45713;-80
2022/06/03 11:14:32;;;;;;;;;10.00;10.00;;;;;24.58;47.60;100871.09;5093427;27;45419;-79
2022/06/03 11:16:59;;;;;;;;;11.00;10.00;;;;;24.40;47.98;100873.25;5111281;27;45729;-80
2022/06/03 11:19:29;;;;;;;;;11.25;10.50;;;;;24.26;48.87;100880.66;5092827;27;48606;-78
2022/06/03 11:22:31;;;;;;;;;12.00;11.75;;;;;24.09;48.81;100878.31;5111893;27;45927;-79
2022/06/03 11:25:02;;;;;;;;;11.00;10.25;;;;;23.93;49.74;100871.44;5111699;27;45556;-81
2022/06/03 11:27:36;;;;;;;;;8.50;8.50;;;;;23.83;50.11;100872.53;5111710;27;45555;-78
2022/06/03 11:30:06;;;;;;;;;11.50;10.50;;;;;23.76;49.71;100871.75;5093114;27;45701;-80
2022/06/03 11:32:35;;;;;;;;;9.50;9.25;;;;;23.65;49.65;100860.34;5110885;27;45981;-80
2022/06/03 11:35:09;;;;;;;;;8.75;8.75;;;;;23.42;49.88;100829.38;5111789;27;45344;-78
2022/06/03 11:37:39;;;;;;;;;8.00;8.00;;;;;23.55;50.46;100862.25;5111846;27;45812;-79
2022/06/03 11:40:18;;;;;;;;;7.00;7.00;;;;;23.57;51.16;100868.47;5092552;27;48108;-78
2022/06/03 11:42:51;;;;;;;;;8.25;8.00;;;;;23.57;51.33;100887.25;5111541;27;46176;-81
2022/06/03 11:45:18;;;;;;;;;8.50;8.50;;;;;23.52;52.97;100890.94;5092183;27;45647;-80
2022/06/03 11:47:49;;;;;;;;;7.00;7.00;;;;;23.43;53.29;100890.16;5091516;27;45363;-81
2022/06/03 11:50:17;;;;;;;;;8.00;8.00;;;;;23.37;52.93;100894.75;5091921;27;48370;-81
2022/06/03 11:52:43;;;;;;;;;7.50;7.25;;;;;23.03;54.14;100855.03;5111002;27;45492;-80
2022/06/03 11:55:08;;;;;;;;;8.50;7.50;;;;;23.22;54.20;100905.72;5109926;27;45486;-79
2022/06/03 11:57:38;;;;;;;;;8.00;8.00;;;;;23.04;54.85;100885.41;5110675;27;45438;-79
2022/06/03 12:00:05;;;;;;;;;7.50;7.50;;;;;23.05;55.23;100892.53;5110850;27;46349;-78
2022/06/03 12:02:40;;;;;;;;;7.00;6.75;;;;;22.87;55.33;100880.25;5110454;27;45509;-80
2022/06/03 12:05:29;;;;;;;;;5.50;5.50;;;;;22.82;56.10;100899.09;5111162;27;45327;-80
2022/06/03 12:08:15;;;;;;;;;7.75;7.00;;;;;22.71;57.07;100889.38;5092543;27;45474;-79
2022/06/03 12:10:50;;;;;;;;;7.75;7.00;;;;;22.66;57.05;100898.41;5078040;27;48267;-79
2022/06/03 12:13:28;;;;;;;;;7.00;7.00;;;;;22.41;57.11;100870.13;5090248;27;45964;-78
2022/06/03 12:15:53;;;;;;;;;8.25;8.25;;;;;22.53;58.75;100906.59;5090430;27;45509;-78
2022/06/03 12:18:31;;;;;;;;;10.00;9.33;;;;;22.45;58.73;100895.97;5071517;27;45469;-77
2022/06/03 12:20:58;;;;;;;;;11.00;10.25;;;;;22.28;58.71;100880.09;5090447;27;46171;-79
2022/06/03 12:23:23;;;;;;;;;12.50;12.00;;;;;22.32;59.38;100897.03;5089519;27;45643;-78
2022/06/03 12:25:49;;;;;;;;;10.00;10.00;;;;;22.27;59.12;100890.84;5090555;27;45647;-79
2022/06/03 12:28:26;;;;;;;;;11.00;11.00;;;;;22.18;59.78;100883.78;5071647;27;45555;-81
2022/06/03 12:31:22;;;;;;;;;9.75;9.75;;;;;21.96;60.47;100852.75;5089853;27;46169;-80
2022/06/03 12:34:06;;;;;;;;;13.50;13.50;;;;;22.08;61.83;100882.97;5090183;27;45886;-81
2022/06/03 12:36:47;;;;;;;;;13.75;13.75;;;;;22.04;62.25;100891.91;5090368;27;45488;-79
2022/06/03 12:39:18;;;;;;;;;11.00;10.75;;;;;22.01;61.99;100896.41;5089828;27;45545;-80
2022/06/03 12:41:43;;;;;;;;;13.25;12.25;;;;;22.00;62.91;100881.25;5090110;27;46476;-80
2022/06/03 12:44:34;;;;;;;;;12.67;12.67;;;;;22.01;63.16;100880.34;5089825;27;45375;-81
2022/06/03 12:47:18;;;;;;;;;13.50;12.25;;;;;22.03;63.65;100878.56;5089780;27;45536;-80
2022/06/03 12:49:43;;;;;;;;;12.00;12.00;;;;;22.04;63.83;100864.28;5071370;27;45490;-81
2022/06/03 12:52:31;;;;;;;;;15.33;13.67;;;;;22.07;63.58;100859.78;5090234;27;46307;-80
2022/06/03 12:55:01;;;;;;;;;11.75;11.75;;;;;22.02;63.41;100850.91;5089566;27;46025;-80